Melrose, Pennsylvania
Current Conditions -  °F | °C
As of 10:54 AM on Friday 21 Nov 2014 (Local Time) from KPNE Reporting Station
Clear Clear  
Wind Chill: 26°   Ceiling: Unl
Heat Index: 35°   Visibility: 10mi
Dew Point:   Wind: 15mph
Humidity: 30%   Direction: 320°NW
Pressure: 30.37"   Gusts: 26mph
Location:  40.0732°N, 75.1248°W
Report Text: KPNE 211554Z AUTO 32013G23KT 10SM CLR 02/M14 A3037 RMK AO2 SLP284 T00171144 TSNO
Loading
Personal Weather Stations






























Interactive Weather Map New forecast layout! Learn more

10-Day Weather Forecast

Advertisements
Track Severe Weather on mobile